createdAt,value
2023-05-19T00:02:27.436Z,10.15
2023-05-19T00:04:55.146Z,8.02
2023-05-19T00:07:29.035Z,7.00
2023-05-19T00:09:56.589Z,7.95
2023-05-19T00:12:24.219Z,6.57
2023-05-19T00:14:51.956Z,7.05
2023-05-19T00:17:20.229Z,5.90
2023-05-19T00:19:48.045Z,6.00
2023-05-19T00:22:15.047Z,6.30
2023-05-19T00:24:42.832Z,7.70
2023-05-19T00:27:09.818Z,5.65
2023-05-19T00:29:37.099Z,5.57
2023-05-19T00:32:04.383Z,4.05
2023-05-19T00:34:31.965Z,8.40
2023-05-19T00:36:58.998Z,9.68
2023-05-19T00:39:26.229Z,6.10
2023-05-19T00:41:53.382Z,9.43
2023-05-19T00:44:21.189Z,4.90
2023-05-19T00:46:48.275Z,5.38
2023-05-19T00:49:15.656Z,8.60
2023-05-19T00:51:42.745Z,7.05
2023-05-19T00:54:10.596Z,10.80
2023-05-19T00:56:37.603Z,6.35
2023-05-19T00:59:05.491Z,7.45
2023-05-19T01:01:32.634Z,6.70
2023-05-19T01:04:00.957Z,7.47
2023-05-19T01:06:29.640Z,7.18
2023-05-19T01:08:57.564Z,7.78
2023-05-19T01:11:24.550Z,6.65
2023-05-19T01:13:52.310Z,5.18
2023-05-19T01:16:25.062Z,11.32
2023-05-19T01:21:36.547Z,6.50
2023-05-19T01:24:30.578Z,6.57
2023-05-19T01:27:21.511Z,6.03
2023-05-19T01:30:23.820Z,8.88
2023-05-19T01:32:53.455Z,4.85
2023-05-19T01:35:24.867Z,9.23
2023-05-19T01:37:57.888Z,9.82
2023-05-19T01:40:27.082Z,5.88
2023-05-19T01:42:57.743Z,9.40
2023-05-19T01:45:27.804Z,8.35
2023-05-19T01:47:57.890Z,6.50
2023-05-19T01:50:25.795Z,10.00
2023-05-19T01:52:53.620Z,4.68
2023-05-19T01:55:22.962Z,6.38
2023-05-19T01:57:58.712Z,17.48
2023-05-19T02:00:34.970Z,8.05
2023-05-19T02:03:08.131Z,5.97
2023-05-19T02:05:45.863Z,5.28
2023-05-19T02:08:34.105Z,6.30
2023-05-19T02:11:07.930Z,4.07
2023-05-19T02:13:43.351Z,4.97
2023-05-19T02:16:13.394Z,4.60
2023-05-19T02:18:45.628Z,5.22
2023-05-19T02:21:13.574Z,6.13
2023-05-19T02:23:42.069Z,5.03
2023-05-19T02:26:09.439Z,5.05
2023-05-19T02:28:39.087Z,4.68
2023-05-19T02:31:08.930Z,8.05
2023-05-19T02:33:36.400Z,5.03
2023-05-19T02:36:03.860Z,5.18
2023-05-19T02:38:31.012Z,3.75
2023-05-19T02:40:58.686Z,3.72
2023-05-19T02:43:25.664Z,6.97
2023-05-19T02:45:53.047Z,5.13
2023-05-19T02:48:20.227Z,3.95
2023-05-19T02:50:47.506Z,6.43
2023-05-19T02:53:14.613Z,3.63
2023-05-19T02:55:42.603Z,4.18
2023-05-19T02:58:09.702Z,5.25
2023-05-19T03:00:36.940Z,3.72
2023-05-19T03:03:04.679Z,8.30
2023-05-19T03:05:32.025Z,2.60
2023-05-19T03:07:59.009Z,4.50
2023-05-19T03:10:26.274Z,7.15
2023-05-19T03:12:53.348Z,3.40
2023-05-19T03:15:22.922Z,3.00
2023-05-19T03:17:50.013Z,3.30
2023-05-19T03:20:17.763Z,2.95
2023-05-19T03:22:44.765Z,2.78
2023-05-19T03:25:12.541Z,4.53
2023-05-19T03:27:39.721Z,3.53
2023-05-19T03:30:08.152Z,5.10
2023-05-19T03:32:37.912Z,3.33
2023-05-19T03:35:05.758Z,2.70
2023-05-19T03:37:33.415Z,5.00
2023-05-19T03:40:00.836Z,3.33
2023-05-19T03:42:27.872Z,3.65
2023-05-19T03:44:55.105Z,3.33
2023-05-19T03:47:22.163Z,2.58
2023-05-19T03:49:49.421Z,4.00
2023-05-19T03:52:17.085Z,5.45
2023-05-19T03:54:45.002Z,3.65
2023-05-19T03:57:12.294Z,3.10
2023-05-19T03:59:41.419Z,3.35
2023-05-19T04:02:08.964Z,2.58
2023-05-19T04:04:37.942Z,5.82
2023-05-19T04:07:05.031Z,4.00
2023-05-19T04:09:35.148Z,2.47
2023-05-19T04:12:05.208Z,4.43
2023-05-19T04:14:32.480Z,3.47
2023-05-19T04:17:00.011Z,4.32
2023-05-19T04:19:27.948Z,3.42
2023-05-19T04:21:54.988Z,5.35
2023-05-19T04:24:22.361Z,3.42
2023-05-19T04:26:49.523Z,4.50
2023-05-19T04:29:18.272Z,2.30
2023-05-19T04:31:45.737Z,5.05
2023-05-19T04:34:13.062Z,5.07
2023-05-19T04:36:40.437Z,3.05
2023-05-19T04:39:10.111Z,4.72
2023-05-19T04:41:40.489Z,3.10
2023-05-19T04:44:09.201Z,2.72
2023-05-19T04:46:36.269Z,2.90
2023-05-19T04:49:03.704Z,3.85
2023-05-19T04:51:31.568Z,3.55
2023-05-19T04:53:58.847Z,3.70
2023-05-19T04:56:27.404Z,7.30
2023-05-19T04:58:54.893Z,5.43
2023-05-19T05:01:25.931Z,3.22
2023-05-19T05:03:55.410Z,4.22
2023-05-19T05:06:22.562Z,5.18
2023-05-19T05:08:50.086Z,2.92
2023-05-19T05:11:17.936Z,3.63
2023-05-19T05:13:46.001Z,8.23
2023-05-19T05:16:13.762Z,6.07
2023-05-19T05:18:44.326Z,4.88
2023-05-19T05:21:12.440Z,2.65
2023-05-19T05:23:39.934Z,4.18
2023-05-19T05:26:15.419Z,4.50
2023-05-19T05:28:42.655Z,5.22
2023-05-19T05:31:09.655Z,4.88
2023-05-19T05:33:38.485Z,4.97
2023-05-19T05:36:05.744Z,6.88
2023-05-19T05:38:33.564Z,5.18
2023-05-19T05:41:02.622Z,3.83
2023-05-19T05:43:30.549Z,5.70
2023-05-19T05:45:57.966Z,4.47
2023-05-19T05:48:25.878Z,2.88
2023-05-19T05:50:54.577Z,3.95
2023-05-19T05:53:23.161Z,4.28
2023-05-19T05:55:51.102Z,3.72
2023-05-19T05:58:18.391Z,3.47
2023-05-19T06:00:45.454Z,5.05
2023-05-19T06:03:13.507Z,3.63
2023-05-19T06:05:40.843Z,4.97
2023-05-19T06:08:07.927Z,6.28
2023-05-19T06:10:36.861Z,5.63
2023-05-19T06:13:04.035Z,5.55
2023-05-19T06:15:31.419Z,6.63
2023-05-19T06:17:59.263Z,5.20
2023-05-19T06:20:26.682Z,4.78
2023-05-19T06:22:53.700Z,3.40
2023-05-19T06:25:20.951Z,5.55
2023-05-19T06:27:47.918Z,5.78
2023-05-19T06:30:15.425Z,6.53
2023-05-19T06:32:42.456Z,4.47
2023-05-19T06:35:09.859Z,3.00
2023-05-19T06:37:36.860Z,4.03
2023-05-19T06:40:05.685Z,4.53
2023-05-19T06:42:32.823Z,5.63
2023-05-19T06:45:00.210Z,3.08
2023-05-19T06:47:27.361Z,5.25
2023-05-19T06:49:55.587Z,5.35
2023-05-19T06:52:23.740Z,3.40
2023-05-19T06:54:51.136Z,2.38
2023-05-19T06:57:18.244Z,5.65
2023-05-19T06:59:46.741Z,5.03
2023-05-19T07:02:14.168Z,5.70
2023-05-19T07:04:42.577Z,2.85
2023-05-19T07:07:09.745Z,4.70
2023-05-19T07:09:37.051Z,3.05
2023-05-19T07:12:04.146Z,3.00
2023-05-19T07:14:31.756Z,2.67
2023-05-19T07:16:58.821Z,2.35
2023-05-19T07:19:26.552Z,2.20
2023-05-19T07:21:54.876Z,4.47
2023-05-19T07:24:22.850Z,2.25
2023-05-19T07:26:49.900Z,3.90
2023-05-19T07:29:17.144Z,2.50
2023-05-19T07:31:44.210Z,2.25
2023-05-19T07:34:11.505Z,4.03
2023-05-19T07:36:39.642Z,2.58
2023-05-19T07:39:06.999Z,2.22
2023-05-19T07:41:34.459Z,3.45
2023-05-19T07:44:07.768Z,1.08
2023-05-19T07:46:35.979Z,2.00
2023-05-19T07:49:04.081Z,3.22
2023-05-19T07:51:31.844Z,1.10
2023-05-19T07:53:59.128Z,3.13
2023-05-19T07:56:26.177Z,1.08
2023-05-19T07:58:53.793Z,2.03
2023-05-19T08:01:20.980Z,1.35
2023-05-19T08:03:48.754Z,1.77
2023-05-19T08:06:15.832Z,3.22
2023-05-19T08:08:43.176Z,1.98
2023-05-19T08:11:10.273Z,1.65
2023-05-19T08:13:37.626Z,4.65
2023-05-19T08:16:05.281Z,2.45
2023-05-19T08:18:32.901Z,3.38
2023-05-19T08:20:59.861Z,8.52
2023-05-19T08:23:27.312Z,4.43
2023-05-19T08:25:54.392Z,3.70
2023-05-19T08:28:23.181Z,1.98
2023-05-19T08:30:52.314Z,3.35
2023-05-19T08:33:21.605Z,2.15
2023-05-19T08:35:48.883Z,1.75
2023-05-19T08:38:16.174Z,0.70
2023-05-19T08:40:44.077Z,1.30
2023-05-19T08:43:12.057Z,1.10
2023-05-19T08:45:43.143Z,0.70
2023-05-19T08:48:11.432Z,2.38
2023-05-19T08:50:42.638Z,1.50
2023-05-19T08:53:31.877Z,1.60
2023-05-19T08:56:10.546Z,2.60
2023-05-19T08:58:43.742Z,1.33
2023-05-19T09:01:14.870Z,0.80
2023-05-19T09:03:44.913Z,2.80
2023-05-19T09:06:13.189Z,2.38
2023-05-19T09:08:42.699Z,1.67
2023-05-19T09:11:10.467Z,1.27
2023-05-19T09:13:37.892Z,1.60
2023-05-19T09:16:05.459Z,1.10
2023-05-19T09:18:32.931Z,0.68
2023-05-19T09:21:03.291Z,1.83
2023-05-19T09:23:34.063Z,1.85
2023-05-19T09:26:07.725Z,2.63
2023-05-19T09:28:37.943Z,1.60
2023-05-19T09:31:06.742Z,2.35
2023-05-19T09:33:38.827Z,3.13
2023-05-19T09:36:08.374Z,4.90
2023-05-19T09:38:36.972Z,2.25
2023-05-19T09:41:05.214Z,5.10
2023-05-19T09:43:34.587Z,2.50
2023-05-19T09:46:12.122Z,1.77
2023-05-19T09:48:42.634Z,2.65
2023-05-19T09:51:12.844Z,4.03
2023-05-19T09:53:40.173Z,4.47
2023-05-19T09:56:10.011Z,2.28
2023-05-19T09:58:39.098Z,3.72
2023-05-19T10:01:07.624Z,1.67
2023-05-19T10:03:35.428Z,3.70
2023-05-19T10:06:04.581Z,2.67
2023-05-19T10:08:33.544Z,3.08
2023-05-19T10:11:00.964Z,2.35
2023-05-19T10:13:30.771Z,3.38
2023-05-19T10:15:59.979Z,2.25
2023-05-19T10:18:29.567Z,3.13
2023-05-19T10:20:59.020Z,5.03
2023-05-19T10:23:26.917Z,2.50
2023-05-19T10:25:58.089Z,3.53
2023-05-19T10:28:30.458Z,1.90
2023-05-19T10:31:01.519Z,6.50
2023-05-19T10:34:10.833Z,2.55
2023-05-19T10:36:49.013Z,3.90
2023-05-19T10:39:17.528Z,3.90
2023-05-19T10:42:07.516Z,3.58
2023-05-19T10:45:10.371Z,2.03
2023-05-19T10:47:37.673Z,3.80
2023-05-19T10:50:06.804Z,2.85
2023-05-19T10:52:38.318Z,3.45
2023-05-19T10:55:15.725Z,3.95
2023-05-19T10:57:56.923Z,2.78
2023-05-19T11:00:29.925Z,2.78
2023-05-19T11:05:52.403Z,4.43
2023-05-19T11:08:32.714Z,2.00
2023-05-19T11:11:16.888Z,3.50
2023-05-19T11:13:48.314Z,3.33
2023-05-19T11:16:19.637Z,4.05
2023-05-19T11:18:50.600Z,3.67
2023-05-19T11:21:20.651Z,3.35
2023-05-19T11:23:47.870Z,4.93
2023-05-19T11:26:15.799Z,2.28
2023-05-19T11:28:43.145Z,3.40
2023-05-19T11:31:11.387Z,4.95
2023-05-19T11:33:39.539Z,3.65
2023-05-19T11:36:08.020Z,4.20
2023-05-19T11:38:35.388Z,4.05
2023-05-19T11:41:04.201Z,3.38
2023-05-19T11:43:31.248Z,4.72
2023-05-19T11:45:59.308Z,3.70
2023-05-19T11:48:26.853Z,3.42
2023-05-19T11:50:54.349Z,4.10
2023-05-19T11:53:21.530Z,4.72
2023-05-19T11:55:49.602Z,2.55
2023-05-19T11:58:17.484Z,5.28
2023-05-19T12:00:47.709Z,6.15
2023-05-19T12:03:15.229Z,2.83
2023-05-19T12:05:48.965Z,3.38
2023-05-19T12:08:19.890Z,5.63
2023-05-19T12:10:52.776Z,5.05
2023-05-19T12:13:21.005Z,7.50
2023-05-19T12:15:50.714Z,3.08
2023-05-19T12:18:17.819Z,6.10
2023-05-19T12:20:45.282Z,3.70
2023-05-19T12:23:12.559Z,3.70
2023-05-19T12:25:40.449Z,6.68
2023-05-19T12:28:07.859Z,4.40
2023-05-19T12:30:35.782Z,10.15
2023-05-19T12:33:03.618Z,4.88
2023-05-19T12:35:36.199Z,5.50
2023-05-19T12:38:07.467Z,7.90
2023-05-19T12:40:36.408Z,5.05
2023-05-19T12:43:04.057Z,6.78
2023-05-19T12:45:36.096Z,6.57
2023-05-19T12:48:05.646Z,7.47
2023-05-19T12:50:34.575Z,4.93
2023-05-19T12:53:02.099Z,4.95
2023-05-19T12:55:29.946Z,8.38
2023-05-19T12:57:58.623Z,7.05
2023-05-19T13:00:31.258Z,4.78
2023-05-19T13:03:01.964Z,12.90
2023-05-19T13:05:39.921Z,5.18
2023-05-19T13:08:12.294Z,5.00
2023-05-19T13:10:41.888Z,4.70
2023-05-19T13:13:10.092Z,4.65
2023-05-19T13:15:42.519Z,7.93
2023-05-19T13:18:10.676Z,5.50
2023-05-19T13:20:39.386Z,5.15
2023-05-19T13:23:06.719Z,5.53
2023-05-19T13:25:34.497Z,4.68
2023-05-19T13:28:05.418Z,6.22
2023-05-19T13:30:34.381Z,7.45
2023-05-19T13:33:02.326Z,9.18
2023-05-19T13:35:30.773Z,9.05
2023-05-19T13:37:57.986Z,9.80
2023-05-19T13:40:28.141Z,6.57
2023-05-19T13:42:55.200Z,7.63
2023-05-19T13:45:22.613Z,5.18
2023-05-19T13:47:49.657Z,5.65
2023-05-19T13:50:17.351Z,6.05
2023-05-19T13:52:44.999Z,5.70
2023-05-19T13:55:12.306Z,6.50
2023-05-19T13:57:40.043Z,5.47
2023-05-19T14:00:10.442Z,6.03
2023-05-19T14:02:38.263Z,5.85
2023-05-19T14:05:07.324Z,5.35
2023-05-19T14:07:35.414Z,6.45
2023-05-19T14:10:05.488Z,5.90
2023-05-19T14:12:41.640Z,5.72
2023-05-19T14:15:20.144Z,7.68
2023-05-19T14:17:49.047Z,9.70
2023-05-19T14:20:16.769Z,5.07
2023-05-19T14:22:43.877Z,5.95
2023-05-19T14:25:11.413Z,8.15
2023-05-19T14:27:39.982Z,6.40
2023-05-19T14:30:08.730Z,5.60
2023-05-19T14:32:36.032Z,8.65
2023-05-19T14:35:04.367Z,7.47
2023-05-19T14:37:32.208Z,7.15
2023-05-19T14:40:00.329Z,10.32
2023-05-19T14:42:27.386Z,8.18
2023-05-19T14:44:54.662Z,8.10
2023-05-19T14:47:21.706Z,5.68
2023-05-19T14:49:49.378Z,8.75
2023-05-19T14:52:16.370Z,8.88
2023-05-19T14:54:43.641Z,11.35
2023-05-19T14:57:10.772Z,6.65
2023-05-19T14:59:39.059Z,7.00
2023-05-19T15:02:06.467Z,7.70
2023-05-19T15:04:33.997Z,7.78
2023-05-19T15:09:31.811Z,5.93
2023-05-19T15:12:01.247Z,8.10
2023-05-19T15:14:30.859Z,8.23
2023-05-19T15:16:59.940Z,7.00
2023-05-19T15:19:27.434Z,8.15
2023-05-19T15:21:54.670Z,7.93
2023-05-19T15:24:22.720Z,7.25
2023-05-19T15:26:49.788Z,7.63
2023-05-19T15:29:17.234Z,8.27
2023-05-19T15:31:44.291Z,8.05
2023-05-19T15:34:11.625Z,6.85
2023-05-19T15:36:38.605Z,6.57
2023-05-19T15:39:06.651Z,10.57
2023-05-19T15:41:33.962Z,7.00
2023-05-19T15:44:02.474Z,9.00
2023-05-19T15:46:30.614Z,8.00
2023-05-19T15:48:58.189Z,8.02
2023-05-19T15:51:25.520Z,12.65
2023-05-19T15:53:53.102Z,9.32
2023-05-19T15:56:21.593Z,8.35
2023-05-19T15:58:49.180Z,7.93
2023-05-19T16:01:17.083Z,14.63
2023-05-19T16:03:45.942Z,9.35
2023-05-19T16:06:13.244Z,9.85
2023-05-19T16:08:40.559Z,10.45
2023-05-19T16:11:07.563Z,8.68
2023-05-19T16:13:35.096Z,10.35
2023-05-19T16:16:02.300Z,13.15
2023-05-19T16:18:29.686Z,10.25
2023-05-19T16:20:56.931Z,15.50
2023-05-19T16:23:24.855Z,11.88
2023-05-19T16:25:53.004Z,11.02
2023-05-19T16:28:22.557Z,9.60
2023-05-19T16:30:51.718Z,9.43
2023-05-19T16:33:19.044Z,7.72
2023-05-19T16:35:46.112Z,10.52
2023-05-19T16:38:13.597Z,11.32
2023-05-19T16:40:40.615Z,11.20
2023-05-19T16:43:07.936Z,7.95
2023-05-19T16:45:35.116Z,8.10
2023-05-19T16:48:02.769Z,10.40
2023-05-19T16:50:29.965Z,7.85
2023-05-19T16:52:57.476Z,13.90
2023-05-19T16:55:25.461Z,10.10
2023-05-19T16:57:52.713Z,12.00
2023-05-19T17:00:19.981Z,8.60
2023-05-19T17:02:47.810Z,9.25
2023-05-19T17:05:15.129Z,9.52
2023-05-19T17:07:42.425Z,10.40
2023-05-19T17:10:09.802Z,8.80
2023-05-19T17:12:37.247Z,10.75
2023-05-19T17:15:04.920Z,9.60
2023-05-19T17:17:32.311Z,9.23
2023-05-19T17:19:59.859Z,8.45
2023-05-19T17:22:28.273Z,9.10
2023-05-19T17:24:57.548Z,10.18
2023-05-19T17:27:25.155Z,8.00
2023-05-19T17:29:52.402Z,10.63
2023-05-19T17:32:25.494Z,11.27
2023-05-19T17:37:23.516Z,10.82
2023-05-19T17:39:50.954Z,11.52
2023-05-19T17:42:18.539Z,8.07
2023-05-19T17:44:45.592Z,10.90
2023-05-19T17:47:13.173Z,12.68
2023-05-19T17:49:40.470Z,8.07
2023-05-19T17:52:08.661Z,9.20
2023-05-19T17:54:36.048Z,7.60
2023-05-19T17:57:06.640Z,8.82
2023-05-19T17:59:33.934Z,11.10
2023-05-19T18:02:01.660Z,8.75
2023-05-19T18:04:29.000Z,11.75
2023-05-19T18:06:58.552Z,8.88
2023-05-19T18:09:28.914Z,10.27
2023-05-19T18:11:57.132Z,10.23
2023-05-19T18:14:24.194Z,10.00
2023-05-19T18:16:51.704Z,10.68
2023-05-19T18:19:18.847Z,9.35
2023-05-19T18:21:46.590Z,11.43
2023-05-19T18:24:13.562Z,8.02
2023-05-19T18:26:42.145Z,10.52
2023-05-19T18:29:14.551Z,11.13
2023-05-19T18:31:42.126Z,12.40
2023-05-19T18:34:09.421Z,7.85
2023-05-19T18:36:36.820Z,9.60
2023-05-19T18:39:04.678Z,9.50
2023-05-19T18:41:32.165Z,12.15
2023-05-19T18:43:59.226Z,8.95
2023-05-19T18:46:26.634Z,9.18
2023-05-19T18:48:53.621Z,9.35
2023-05-19T18:51:21.781Z,7.30
2023-05-19T18:53:50.198Z,8.82
2023-05-19T18:56:28.261Z,10.43
2023-05-19T18:58:55.362Z,8.70
2023-05-19T19:01:23.300Z,11.25
2023-05-19T19:03:50.599Z,12.68
2023-05-19T19:06:18.422Z,8.75
2023-05-19T19:08:45.588Z,8.40
2023-05-19T19:11:13.277Z,9.20
2023-05-19T19:13:40.503Z,13.00
2023-05-19T19:16:07.875Z,8.48
2023-05-19T19:18:36.475Z,9.00
2023-05-19T19:21:05.865Z,9.30
2023-05-19T19:23:33.303Z,9.13
2023-05-19T19:26:01.007Z,11.52
2023-05-19T19:28:28.148Z,10.32
2023-05-19T19:30:55.501Z,10.68
2023-05-19T19:33:22.592Z,8.82
2023-05-19T19:35:50.202Z,11.25
2023-05-19T19:38:17.599Z,9.70
2023-05-19T19:40:44.924Z,9.15
2023-05-19T19:43:12.042Z,10.50
2023-05-19T19:45:39.625Z,10.40
2023-05-19T19:48:07.280Z,10.38
2023-05-19T19:50:35.202Z,10.95
2023-05-19T19:53:02.364Z,13.52
2023-05-19T19:55:30.878Z,10.77
2023-05-19T19:57:58.031Z,11.43
2023-05-19T20:00:25.560Z,10.20
2023-05-19T20:03:04.294Z,9.48
2023-05-19T20:05:32.860Z,11.02
2023-05-19T20:08:00.267Z,9.30
2023-05-19T20:10:27.599Z,13.00
2023-05-19T20:12:54.742Z,7.78
2023-05-19T20:15:22.283Z,11.90
2023-05-19T20:17:49.500Z,10.13
2023-05-19T20:20:16.809Z,8.27
2023-05-19T20:22:46.658Z,11.38
2023-05-19T20:25:13.945Z,10.32
2023-05-19T20:27:41.001Z,11.60
2023-05-19T20:30:49.306Z,11.68
2023-05-19T20:33:19.583Z,10.90
2023-05-19T20:35:47.124Z,8.23
2023-05-19T20:38:14.193Z,11.35
2023-05-19T20:40:41.625Z,17.17
2023-05-19T20:43:08.643Z,12.23
2023-05-19T20:45:36.540Z,11.32
2023-05-19T20:48:04.093Z,11.50
2023-05-19T20:50:31.993Z,10.23
2023-05-19T20:52:59.248Z,11.10
2023-05-19T20:55:26.499Z,9.48
2023-05-19T20:57:53.586Z,12.98
2023-05-19T21:00:21.292Z,13.70
2023-05-19T21:02:48.309Z,13.23
2023-05-19T21:05:15.789Z,16.05
2023-05-19T21:07:42.860Z,12.65
2023-05-19T21:10:12.437Z,13.02
2023-05-19T21:12:39.554Z,13.63
2023-05-19T21:15:07.992Z,14.10
2023-05-19T21:17:35.008Z,15.05
2023-05-19T21:20:02.404Z,13.48
2023-05-19T21:22:29.619Z,14.27
2023-05-19T21:24:57.399Z,11.73
2023-05-19T21:27:24.488Z,10.45
2023-05-19T21:29:54.521Z,12.82
2023-05-19T21:32:21.948Z,10.35
2023-05-19T21:34:49.347Z,11.70
2023-05-19T21:37:19.763Z,11.35
2023-05-19T21:39:47.126Z,10.95
2023-05-19T21:42:14.090Z,10.02
2023-05-19T21:44:41.812Z,10.88
2023-05-19T21:47:08.838Z,10.88
2023-05-19T21:49:36.185Z,11.23
2023-05-19T21:52:03.237Z,10.27
2023-05-19T21:54:30.559Z,13.10
2023-05-19T21:56:57.670Z,11.63
2023-05-19T21:59:25.143Z,11.45
2023-05-19T22:01:52.588Z,11.88
2023-05-19T22:04:21.577Z,12.45
2023-05-19T22:06:48.600Z,11.55
2023-05-19T22:09:15.950Z,12.95
2023-05-19T22:11:42.905Z,14.30
2023-05-19T22:14:10.383Z,12.65
2023-05-19T22:16:37.544Z,10.43
2023-05-19T22:19:04.929Z,11.38
2023-05-19T22:21:32.073Z,12.18
2023-05-19T22:23:59.352Z,16.80
2023-05-19T22:26:27.185Z,14.02
2023-05-19T22:28:55.995Z,14.20
2023-05-19T22:31:22.960Z,12.75
2023-05-19T22:33:50.281Z,17.00
2023-05-19T22:36:17.341Z,14.18
2023-05-19T22:38:44.672Z,14.07
2023-05-19T22:41:11.614Z,14.50
2023-05-19T22:43:38.941Z,10.90
2023-05-19T22:46:06.293Z,15.13
2023-05-19T22:48:33.929Z,16.42
2023-05-19T22:51:01.159Z,13.82
2023-05-19T22:53:28.702Z,17.08
2023-05-19T22:55:55.772Z,14.02
2023-05-19T22:58:23.355Z,15.57
2023-05-19T23:00:50.412Z,21.60
2023-05-19T23:03:18.312Z,11.93
2023-05-19T23:05:45.321Z,14.27
2023-05-19T23:08:12.595Z,17.92
2023-05-19T23:10:39.597Z,17.02
2023-05-19T23:13:08.214Z,16.70
2023-05-19T23:15:35.636Z,19.27
2023-05-19T23:18:07.290Z,16.45
2023-05-19T23:20:34.987Z,15.05
2023-05-19T23:23:02.304Z,19.98
2023-05-19T23:25:29.468Z,16.70
2023-05-19T23:27:56.764Z,13.85
2023-05-19T23:30:23.745Z,15.25
2023-05-19T23:32:51.449Z,16.33
2023-05-19T23:35:20.063Z,14.75
2023-05-19T23:37:47.443Z,19.90
2023-05-19T23:40:14.798Z,20.15
2023-05-19T23:42:44.313Z,18.13
2023-05-19T23:45:11.639Z,16.10
2023-05-19T23:47:39.348Z,21.08
2023-05-19T23:50:06.762Z,17.08
2023-05-19T23:52:34.080Z,19.50
2023-05-19T23:55:01.211Z,15.93
2023-05-19T23:57:28.542Z,18.80
2023-05-19T23:59:55.679Z,13.65
